createdAt,value
2022-10-04T00:04:19.146Z,11.7
2022-10-04T00:19:28.603Z,11.6
2022-10-04T00:34:38.728Z,11.6
2022-10-04T00:49:48.637Z,11.7
2022-10-04T01:04:58.663Z,11.7
2022-10-04T01:20:08.841Z,11.7
2022-10-04T01:35:21.908Z,11.7
2022-10-04T01:50:30.779Z,11.7
2022-10-04T02:05:39.720Z,11.8
2022-10-04T02:20:54.566Z,11.8
2022-10-04T02:36:08.023Z,11.8
2022-10-04T02:51:17.582Z,11.8
2022-10-04T03:06:29.645Z,11.7
2022-10-04T03:21:40.398Z,11.8
2022-10-04T03:36:52.385Z,11.8
2022-10-04T03:52:04.628Z,11.8
2022-10-04T04:07:13.605Z,11.8
2022-10-04T04:22:23.346Z,11.7
2022-10-04T04:37:32.689Z,11.6
2022-10-04T04:52:42.409Z,11.6
2022-10-04T05:07:52.206Z,11.5
2022-10-04T05:23:02.003Z,11.6
2022-10-04T05:38:11.688Z,11.6
2022-10-04T05:53:21.343Z,11.6
2022-10-04T06:08:32.839Z,11.6
2022-10-04T06:23:42.837Z,11.8
2022-10-04T06:38:52.456Z,11.8
2022-10-04T06:54:01.646Z,11.9
2022-10-04T07:09:10.933Z,12
2022-10-04T07:24:22.695Z,12.1
2022-10-04T07:39:31.657Z,12.2
2022-10-04T07:54:41.899Z,12.3
2022-10-04T08:09:51.663Z,12.4
2022-10-04T08:25:01.343Z,12.7
2022-10-04T08:40:13.057Z,13.1
2022-10-04T08:55:24.286Z,13.3
2022-10-04T09:10:33.772Z,13.5
2022-10-04T09:25:43.480Z,13.8
2022-10-04T09:40:53.281Z,14.1
2022-10-04T09:56:03.410Z,14.5
2022-10-04T10:11:13.157Z,14.6
2022-10-04T10:26:22.945Z,14.9
2022-10-04T10:41:32.456Z,15.3
2022-10-04T10:56:42.101Z,15.5
2022-10-04T11:11:56.282Z,15.8
2022-10-04T11:27:08.329Z,16.1
2022-10-04T11:42:18.332Z,16.4
2022-10-04T11:57:29.825Z,18.5
2022-10-04T12:12:40.907Z,20.3
2022-10-04T12:27:49.842Z,20.6
2022-10-04T12:42:59.392Z,20.4
2022-10-04T12:58:09.396Z,20.4
2022-10-04T13:13:18.607Z,20.2
2022-10-04T13:28:28.263Z,20.5
2022-10-04T13:43:38.860Z,22.7
2022-10-04T13:58:48.078Z,20.7
2022-10-04T14:13:56.796Z,19.7
2022-10-04T14:29:06.268Z,19.3
2022-10-04T14:44:15.789Z,19
2022-10-04T14:59:25.149Z,18.8
2022-10-04T15:14:34.713Z,18.6
2022-10-04T15:29:44.207Z,18.3
2022-10-04T15:44:54.350Z,18.1
2022-10-04T16:00:03.693Z,17.9
2022-10-04T16:15:13.535Z,17.6
2022-10-04T16:30:26.870Z,17.3
2022-10-04T16:45:38.772Z,16.9
2022-10-04T17:00:48.778Z,16.6
2022-10-04T17:15:58.603Z,16.3
2022-10-04T17:31:08.189Z,16
2022-10-04T17:46:18.024Z,15.7
2022-10-04T18:01:27.753Z,15.5
2022-10-04T18:16:37.739Z,15.4
2022-10-04T18:31:46.846Z,15.2
2022-10-04T18:46:56.998Z,15.1
2022-10-04T19:02:08.875Z,15
2022-10-04T19:17:18.918Z,14.9
2022-10-04T19:32:28.443Z,14.8
2022-10-04T19:47:37.995Z,14.6
2022-10-04T20:02:48.787Z,14.5
2022-10-04T20:17:59.253Z,14.4
2022-10-04T20:33:08.678Z,14.3
2022-10-04T20:48:18.776Z,14.1
2022-10-04T21:03:29.188Z,14
2022-10-04T21:18:38.858Z,14
2022-10-04T21:33:48.573Z,14
2022-10-04T21:48:57.867Z,13.9
2022-10-04T22:04:07.330Z,13.8
2022-10-04T22:19:16.149Z,13.8
2022-10-04T22:34:26.324Z,13.8
2022-10-04T22:49:35.535Z,13.7
2022-10-04T23:04:44.638Z,13.6
2022-10-04T23:19:54.446Z,13.6
2022-10-04T23:35:04.143Z,13.6
2022-10-04T23:50:13.490Z,13.5
